createdAt,value
2022-09-11T00:00:41.109Z,23.20
2022-09-11T00:03:12.750Z,22.78
2022-09-11T00:06:03.711Z,22.85
2022-09-11T00:08:33.888Z,23.18
2022-09-11T00:11:07.873Z,22.73
2022-09-11T00:13:40.998Z,22.78
2022-09-11T00:16:19.732Z,22.51
2022-09-11T00:18:50.870Z,22.59
2022-09-11T00:21:25.386Z,22.67
2022-09-11T00:24:01.690Z,22.59
2022-09-11T00:26:32.189Z,22.40
2022-09-11T00:29:05.330Z,22.45
2022-09-11T00:31:38.422Z,22.17
2022-09-11T00:34:11.839Z,22.15
2022-09-11T00:36:44.439Z,22.02
2022-09-11T00:39:15.286Z,21.88
2022-09-11T00:41:48.262Z,22.11
2022-09-11T00:44:28.407Z,22.06
2022-09-11T00:46:56.724Z,22.14
2022-09-11T00:49:44.168Z,22.05
2022-09-11T00:52:23.914Z,21.90
2022-09-11T00:55:13.776Z,21.85
2022-09-11T00:57:50.841Z,21.95
2022-09-11T01:00:25.520Z,22.01
2022-09-11T01:02:56.507Z,22.23
2022-09-11T01:05:37.856Z,22.02
2022-09-11T01:08:10.550Z,22.03
2022-09-11T01:10:53.017Z,22.24
2022-09-11T01:13:26.192Z,22.29
2022-09-11T01:16:12.550Z,22.42
2022-09-11T01:18:46.664Z,22.26
2022-09-11T01:21:17.396Z,22.45
2022-09-11T01:23:55.160Z,22.47
2022-09-11T01:26:41.283Z,22.44
2022-09-11T01:29:18.240Z,22.32
2022-09-11T01:32:00.460Z,22.33
2022-09-11T01:34:30.299Z,22.11
2022-09-11T01:37:03.921Z,22.06
2022-09-11T01:39:33.771Z,21.97
2022-09-11T01:42:07.145Z,21.96
2022-09-11T01:44:48.307Z,22.09
2022-09-11T01:47:21.123Z,21.74
2022-09-11T01:50:12.618Z,22.06
2022-09-11T01:52:51.302Z,22.12
2022-09-11T01:55:42.062Z,22.31
2022-09-11T01:58:13.649Z,22.62
2022-09-11T02:00:49.187Z,22.66
2022-09-11T02:03:25.068Z,22.36
2022-09-11T02:06:00.530Z,22.24
2022-09-11T02:08:33.102Z,22.43
2022-09-11T02:11:11.027Z,22.65
2022-09-11T02:13:55.698Z,22.45
2022-09-11T02:16:26.913Z,22.67
2022-09-11T02:19:01.362Z,22.56
2022-09-11T02:21:36.795Z,22.82
2022-09-11T02:24:12.150Z,22.64
2022-09-11T02:26:43.723Z,22.01
2022-09-11T02:29:18.065Z,21.57
2022-09-11T02:31:59.115Z,21.96
2022-09-11T02:34:31.162Z,22.41
2022-09-11T02:37:20.433Z,22.60
2022-09-11T02:40:06.749Z,22.16
2022-09-11T02:42:57.573Z,21.74
2022-09-11T02:45:44.291Z,21.87
2022-09-11T02:48:33.104Z,21.74
2022-09-11T02:51:12.994Z,21.96
2022-09-11T02:53:49.371Z,22.21
2022-09-11T02:56:24.249Z,22.41
2022-09-11T02:59:02.248Z,22.66
2022-09-11T03:01:55.211Z,22.74
2022-09-11T03:04:31.624Z,22.39
2022-09-11T03:06:59.163Z,22.09
2022-09-11T03:09:29.468Z,22.42
2022-09-11T03:12:08.293Z,22.04
2022-09-11T03:14:44.766Z,21.94
2022-09-11T03:17:18.314Z,21.68
2022-09-11T03:19:57.086Z,21.76
2022-09-11T03:22:30.255Z,22.10
2022-09-11T03:25:06.008Z,21.75
2022-09-11T03:27:42.334Z,21.57
2022-09-11T03:30:15.730Z,21.74
2022-09-11T03:32:48.408Z,21.58
2022-09-11T03:35:19.135Z,21.85
2022-09-11T03:37:51.502Z,21.38
2022-09-11T03:40:23.352Z,21.67
2022-09-11T03:42:56.448Z,21.39
2022-09-11T03:45:28.007Z,21.42
2022-09-11T03:48:03.589Z,21.48
2022-09-11T03:50:38.133Z,21.75
2022-09-11T03:53:14.463Z,22.11
2022-09-11T03:55:53.387Z,21.57
2022-09-11T03:58:28.812Z,21.36
2022-09-11T04:01:15.124Z,21.70
2022-09-11T04:03:47.281Z,21.39
2022-09-11T04:06:31.149Z,21.70
2022-09-11T04:09:06.134Z,21.93
2022-09-11T04:11:41.516Z,21.89
2022-09-11T04:14:19.475Z,21.89
2022-09-11T04:16:49.860Z,21.53
2022-09-11T04:19:23.653Z,21.93
2022-09-11T04:21:56.617Z,22.07
2022-09-11T04:24:25.144Z,21.82
2022-09-11T04:27:00.476Z,21.94
2022-09-11T04:29:35.366Z,21.97
2022-09-11T04:32:06.138Z,22.04
2022-09-11T04:35:17.341Z,22.10
2022-09-11T04:37:57.710Z,21.56
2022-09-11T04:40:34.248Z,21.56
2022-09-11T04:43:03.465Z,21.68
2022-09-11T04:45:40.325Z,21.76
2022-09-11T04:48:14.312Z,21.89
2022-09-11T04:50:50.251Z,21.53
2022-09-11T04:53:30.495Z,21.71
2022-09-11T04:56:05.221Z,21.01
2022-09-11T04:58:44.076Z,21.27
2022-09-11T05:01:15.484Z,21.66
2022-09-11T05:03:52.825Z,21.81
2022-09-11T05:06:27.271Z,21.96
2022-09-11T05:09:04.802Z,21.71
2022-09-11T05:11:39.575Z,21.67
2022-09-11T05:14:10.622Z,20.96
2022-09-11T05:16:45.762Z,20.48
2022-09-11T05:19:19.288Z,20.94
2022-09-11T05:21:53.149Z,21.38
2022-09-11T05:24:26.431Z,21.29
2022-09-11T05:26:59.254Z,21.58
2022-09-11T05:29:38.713Z,21.70
2022-09-11T05:32:17.545Z,22.03
2022-09-11T05:34:53.036Z,22.03
2022-09-11T05:37:27.646Z,22.22
2022-09-11T05:40:00.603Z,22.16
2022-09-11T05:42:31.481Z,22.08
2022-09-11T05:45:07.495Z,21.61
2022-09-11T05:47:42.143Z,21.86
2022-09-11T05:50:16.726Z,22.05
2022-09-11T05:52:52.602Z,21.86
2022-09-11T05:55:25.714Z,21.91
2022-09-11T05:57:59.164Z,22.08
2022-09-11T06:00:30.705Z,22.12
2022-09-11T06:03:04.754Z,22.23
2022-09-11T06:05:38.316Z,22.26
2022-09-11T06:08:12.892Z,22.33
2022-09-11T06:10:52.754Z,21.77
2022-09-11T06:13:25.746Z,21.84
2022-09-11T06:15:58.172Z,21.78
2022-09-11T06:18:31.209Z,21.96
2022-09-11T06:21:03.014Z,22.13
2022-09-11T06:23:45.420Z,22.19
2022-09-11T06:26:21.550Z,22.05
2022-09-11T06:28:57.225Z,22.13
2022-09-11T06:31:30.800Z,22.01
2022-09-11T06:34:01.020Z,22.12
2022-09-11T06:36:39.798Z,21.54
2022-09-11T06:39:14.585Z,21.92
2022-09-11T06:41:47.688Z,21.93
2022-09-11T06:44:21.468Z,21.96
2022-09-11T06:46:54.370Z,22.17
2022-09-11T06:49:31.320Z,22.01
2022-09-11T06:52:20.619Z,22.24
2022-09-11T06:55:08.014Z,22.02
2022-09-11T06:57:42.223Z,22.08
2022-09-11T07:00:18.266Z,21.98
2022-09-11T07:02:51.156Z,21.98
2022-09-11T07:05:43.586Z,22.20
2022-09-11T07:08:15.092Z,21.82
2022-09-11T07:10:47.982Z,22.01
2022-09-11T07:13:18.262Z,21.98
2022-09-11T07:15:55.961Z,22.13
2022-09-11T07:18:25.762Z,22.01
2022-09-11T07:20:58.772Z,22.07
2022-09-11T07:23:35.156Z,22.31
2022-09-11T07:26:07.328Z,22.42
2022-09-11T07:28:38.822Z,22.44
2022-09-11T07:31:18.717Z,22.45
2022-09-11T07:33:52.670Z,22.71
2022-09-11T07:36:27.128Z,22.70
2022-09-11T07:38:58.179Z,22.69
2022-09-11T07:41:36.571Z,22.74
2022-09-11T07:44:10.732Z,23.02
2022-09-11T07:47:01.420Z,23.10
2022-09-11T07:49:35.431Z,23.06
2022-09-11T07:52:14.802Z,23.02
2022-09-11T07:54:52.610Z,23.16
2022-09-11T07:57:28.481Z,23.17
2022-09-11T07:59:59.552Z,23.28
2022-09-11T08:02:43.130Z,23.27
2022-09-11T08:05:15.866Z,23.28
2022-09-11T08:07:49.533Z,23.43
2022-09-11T08:10:28.154Z,23.32
2022-09-11T08:13:09.468Z,23.37
2022-09-11T08:15:46.981Z,23.50
2022-09-11T08:18:16.651Z,23.59
2022-09-11T08:20:52.958Z,23.71
2022-09-11T08:23:22.858Z,23.55
2022-09-11T08:25:57.930Z,23.78
2022-09-11T08:28:28.775Z,23.30
2022-09-11T08:31:07.353Z,23.27
2022-09-11T08:33:37.598Z,23.19
2022-09-11T08:36:09.791Z,23.70
2022-09-11T08:38:39.632Z,23.79
2022-09-11T08:41:19.738Z,23.46
2022-09-11T08:43:51.117Z,23.43
2022-09-11T08:46:47.394Z,23.25
2022-09-11T08:49:18.888Z,23.62
2022-09-11T08:51:51.600Z,23.62
2022-09-11T08:54:27.555Z,23.52
2022-09-11T08:57:22.308Z,23.50
2022-09-11T09:00:02.221Z,23.63
2022-09-11T09:02:49.449Z,23.39
2022-09-11T09:05:35.877Z,23.69
2022-09-11T09:08:10.574Z,23.59
2022-09-11T09:11:14.166Z,23.30
2022-09-11T09:13:55.257Z,23.80
2022-09-11T09:16:42.393Z,23.51
2022-09-11T09:19:17.439Z,23.52
2022-09-11T09:22:10.790Z,23.60
2022-09-11T09:24:58.575Z,23.96
2022-09-11T09:27:35.907Z,24.51
2022-09-11T09:30:07.723Z,24.64
2022-09-11T09:32:42.189Z,24.56
2022-09-11T09:35:13.078Z,24.27
2022-09-11T09:37:46.012Z,24.09
2022-09-11T09:40:18.346Z,24.34
2022-09-11T09:43:05.853Z,24.22
2022-09-11T09:45:37.730Z,24.64
2022-09-11T09:48:13.058Z,24.73
2022-09-11T09:50:44.942Z,24.73
2022-09-11T09:53:18.355Z,24.82
2022-09-11T09:55:51.390Z,24.40
2022-09-11T09:58:33.889Z,24.71
2022-09-11T10:01:07.335Z,24.73
2022-09-11T10:03:44.200Z,24.85
2022-09-11T10:06:17.004Z,24.88
2022-09-11T10:08:46.958Z,25.10
2022-09-11T10:11:18.393Z,25.22
2022-09-11T10:13:57.441Z,25.13
2022-09-11T10:16:32.606Z,25.20
2022-09-11T10:19:04.880Z,24.77
2022-09-11T10:21:39.794Z,25.17
2022-09-11T10:24:15.947Z,25.40
2022-09-11T10:26:49.742Z,25.64
2022-09-11T10:29:30.213Z,25.72
2022-09-11T10:32:07.130Z,25.53
2022-09-11T10:34:38.392Z,25.83
2022-09-11T10:37:19.210Z,26.05
2022-09-11T10:39:49.690Z,25.94
2022-09-11T10:42:28.126Z,26.12
2022-09-11T10:45:08.731Z,25.79
2022-09-11T10:47:42.225Z,25.89
2022-09-11T10:50:23.258Z,25.87
2022-09-11T10:53:00.269Z,26.06
2022-09-11T10:55:41.171Z,26.11
2022-09-11T10:58:13.617Z,26.52
2022-09-11T11:00:45.333Z,26.53
2022-09-11T11:03:19.470Z,26.49
2022-09-11T11:05:53.451Z,26.68
2022-09-11T11:08:29.357Z,26.71
2022-09-11T11:11:04.263Z,26.90
2022-09-11T11:13:39.168Z,26.79
2022-09-11T11:16:18.829Z,27.27
2022-09-11T11:18:58.916Z,27.96
2022-09-11T11:21:29.940Z,27.91
2022-09-11T11:24:04.479Z,28.63
2022-09-11T11:26:38.942Z,29.86
2022-09-11T11:29:14.643Z,30.74
2022-09-11T11:31:48.356Z,31.64
2022-09-11T11:35:04.154Z,33.78
2022-09-11T11:37:35.389Z,34.83
2022-09-11T11:40:05.951Z,35.49
2022-09-11T11:42:36.633Z,32.91
2022-09-11T11:45:10.513Z,33.31
2022-09-11T11:47:44.626Z,35.03
2022-09-11T11:50:19.780Z,34.96
2022-09-11T11:52:52.937Z,34.69
2022-09-11T11:55:27.322Z,35.34
2022-09-11T11:58:08.774Z,35.62
2022-09-11T12:00:42.180Z,36.82
2022-09-11T12:03:25.642Z,35.72
2022-09-11T12:05:57.740Z,36.78
2022-09-11T12:08:30.304Z,36.51
2022-09-11T12:11:03.521Z,36.21
2022-09-11T12:13:38.139Z,36.89
2022-09-11T12:16:19.207Z,36.22
2022-09-11T12:19:06.147Z,35.99
2022-09-11T12:21:42.706Z,34.15
2022-09-11T12:24:18.061Z,35.36
2022-09-11T12:26:50.556Z,37.22
2022-09-11T12:29:31.259Z,36.29
2022-09-11T12:31:59.187Z,38.07
2022-09-11T12:34:33.114Z,37.95
2022-09-11T12:37:20.959Z,35.03
2022-09-11T12:39:51.495Z,37.88
2022-09-11T12:42:32.848Z,36.99
2022-09-11T12:45:05.561Z,36.37
2022-09-11T12:47:37.924Z,37.80
2022-09-11T12:50:18.554Z,36.47
2022-09-11T12:52:57.895Z,35.38
2022-09-11T12:55:31.345Z,37.02
2022-09-11T12:58:21.438Z,35.96
2022-09-11T13:01:03.307Z,37.88
2022-09-11T13:03:31.435Z,36.82
2022-09-11T13:06:05.154Z,36.88
2022-09-11T13:08:44.487Z,36.93
2022-09-11T13:11:30.972Z,37.39
2022-09-11T13:14:00.170Z,38.02
2022-09-11T13:16:37.748Z,37.48
2022-09-11T13:19:07.685Z,37.88
2022-09-11T13:21:38.840Z,37.44
2022-09-11T13:24:21.560Z,36.60
2022-09-11T13:26:59.773Z,37.35
2022-09-11T13:29:32.577Z,37.30
2022-09-11T13:32:00.738Z,36.80
2022-09-11T13:34:31.244Z,36.94
2022-09-11T13:37:10.164Z,36.29
2022-09-11T13:39:42.494Z,34.81
2022-09-11T13:42:17.117Z,33.18
2022-09-11T13:44:49.694Z,31.89
2022-09-11T13:47:23.287Z,30.63
2022-09-11T13:49:57.868Z,29.91
2022-09-11T13:52:28.299Z,29.14
2022-09-11T13:55:04.065Z,29.12
2022-09-11T13:57:34.397Z,28.63
2022-09-11T14:00:04.668Z,28.45
2022-09-11T14:02:51.486Z,28.30
2022-09-11T14:05:32.745Z,27.95
2022-09-11T14:08:08.727Z,27.51
2022-09-11T14:10:47.351Z,27.44
2022-09-11T14:13:18.346Z,27.36
2022-09-11T14:15:52.414Z,27.42
2022-09-11T14:18:59.937Z,27.56
2022-09-11T14:21:38.081Z,27.59
2022-09-11T14:24:24.616Z,27.35
2022-09-11T14:26:58.435Z,27.17
2022-09-11T14:29:35.249Z,27.12
2022-09-11T14:32:21.403Z,27.00
2022-09-11T14:34:54.273Z,27.20
2022-09-11T14:37:30.694Z,27.20
2022-09-11T14:40:00.932Z,27.08
2022-09-11T14:42:36.850Z,27.05
2022-09-11T14:45:25.926Z,26.94
2022-09-11T14:47:59.057Z,26.81
2022-09-11T14:50:29.168Z,26.67
2022-09-11T14:53:04.817Z,26.67
2022-09-11T14:55:34.780Z,26.74
2022-09-11T14:58:08.178Z,26.70
2022-09-11T15:00:40.069Z,26.69
2022-09-11T15:03:15.548Z,26.74
2022-09-11T15:05:46.907Z,26.80
2022-09-11T15:08:15.939Z,26.82
2022-09-11T15:10:53.812Z,26.62
2022-09-11T15:13:28.756Z,26.67
2022-09-11T15:16:00.216Z,26.61
2022-09-11T15:18:31.268Z,26.73
2022-09-11T15:21:02.750Z,26.71
2022-09-11T15:23:35.819Z,26.65
2022-09-11T15:26:09.599Z,26.60
2022-09-11T15:28:42.607Z,26.62
2022-09-11T15:31:12.657Z,26.72
2022-09-11T15:33:40.427Z,26.66
2022-09-11T15:36:12.156Z,26.54
2022-09-11T15:38:47.052Z,26.66
2022-09-11T15:41:20.373Z,26.66
2022-09-11T15:43:50.913Z,26.52
2022-09-11T15:46:24.456Z,26.62
2022-09-11T15:48:58.565Z,26.60
2022-09-11T15:51:35.274Z,26.57
2022-09-11T15:54:06.168Z,26.58
2022-09-11T15:56:36.307Z,26.56
2022-09-11T15:59:08.518Z,26.60
2022-09-11T16:01:41.589Z,26.56
2022-09-11T16:04:10.503Z,26.45
2022-09-11T16:06:43.622Z,26.38
2022-09-11T16:09:14.976Z,26.37
2022-09-11T16:11:48.046Z,26.41
2022-09-11T16:14:18.805Z,26.40
2022-09-11T16:16:54.761Z,26.23
2022-09-11T16:19:34.826Z,26.22
2022-09-11T16:22:05.751Z,26.25
2022-09-11T16:24:38.765Z,26.29
2022-09-11T16:27:12.084Z,26.25
2022-09-11T16:30:20.384Z,26.19
2022-09-11T16:32:39.392Z,26.14
2022-09-11T16:35:13.554Z,26.21
2022-09-11T16:37:45.993Z,26.27
2022-09-11T16:40:15.865Z,26.33
2022-09-11T16:42:48.846Z,26.32
2022-09-11T16:45:19.764Z,26.26
2022-09-11T16:47:49.697Z,26.21
2022-09-11T16:50:22.093Z,26.16
2022-09-11T16:52:57.953Z,26.20
2022-09-11T16:55:33.329Z,26.31
2022-09-11T16:58:06.310Z,26.34
2022-09-11T17:00:37.987Z,26.06
2022-09-11T17:03:09.442Z,26.00
2022-09-11T17:05:41.882Z,25.85
2022-09-11T17:08:15.095Z,25.82
2022-09-11T17:10:46.363Z,25.71
2022-09-11T17:13:22.433Z,25.74
2022-09-11T17:15:55.681Z,25.64
2022-09-11T17:18:32.616Z,25.65
2022-09-11T17:21:06.653Z,25.56
2022-09-11T17:23:40.132Z,25.62
2022-09-11T17:26:11.323Z,25.56
2022-09-11T17:28:44.960Z,25.63
2022-09-11T17:31:19.447Z,25.52
2022-09-11T17:33:52.697Z,25.45
2022-09-11T17:36:29.603Z,25.60
2022-09-11T17:38:59.654Z,25.48
2022-09-11T17:41:37.176Z,25.51
2022-09-11T17:44:11.245Z,25.56
2022-09-11T17:46:43.644Z,25.61
2022-09-11T17:49:15.204Z,25.61
2022-09-11T17:51:45.012Z,25.59
2022-09-11T17:54:17.011Z,25.58
2022-09-11T17:56:50.479Z,25.57
2022-09-11T17:59:25.891Z,25.54
2022-09-11T18:01:59.160Z,25.48
2022-09-11T18:04:32.295Z,25.36
2022-09-11T18:10:15.765Z,25.36
2022-09-11T18:12:43.498Z,25.40
2022-09-11T18:15:19.001Z,25.36
2022-09-11T18:17:51.309Z,25.35
2022-09-11T18:20:27.430Z,25.38
2022-09-11T18:22:55.664Z,25.36
2022-09-11T18:25:30.401Z,25.39
2022-09-11T18:28:03.752Z,25.42
2022-09-11T18:30:35.440Z,25.45
2022-09-11T18:33:10.180Z,25.46
2022-09-11T18:35:39.403Z,25.28
2022-09-11T18:38:13.034Z,25.29
2022-09-11T18:40:49.609Z,25.29
2022-09-11T18:43:22.685Z,25.31
2022-09-11T18:45:55.735Z,25.28
2022-09-11T18:48:31.579Z,25.26
2022-09-11T18:51:01.907Z,25.28
2022-09-11T18:53:32.383Z,25.32
2022-09-11T18:56:07.586Z,25.25
2022-09-11T18:58:39.190Z,25.01
2022-09-11T19:01:11.717Z,25.02
2022-09-11T19:03:42.395Z,25.03
2022-09-11T19:06:15.230Z,25.00
2022-09-11T19:08:47.708Z,24.79
2022-09-11T19:11:16.634Z,24.58
2022-09-11T19:13:49.075Z,24.58
2022-09-11T19:16:24.606Z,24.80
2022-09-11T19:19:00.177Z,24.83
2022-09-11T19:21:31.427Z,24.70
2022-09-11T19:24:37.030Z,24.15
2022-09-11T19:27:12.044Z,24.05
2022-09-11T19:29:46.018Z,24.20
2022-09-11T19:32:14.280Z,24.37
2022-09-11T19:34:47.489Z,24.49
2022-09-11T19:37:20.280Z,24.65
2022-09-11T19:39:54.081Z,24.70
2022-09-11T19:42:27.166Z,24.73
2022-09-11T19:45:00.312Z,24.63
2022-09-11T19:47:33.044Z,24.63
2022-09-11T19:50:04.431Z,24.59
2022-09-11T19:52:33.166Z,24.72
2022-09-11T19:55:10.042Z,24.64
2022-09-11T19:57:43.700Z,24.71
2022-09-11T20:00:39.409Z,24.67
2022-09-11T20:03:16.302Z,24.70
2022-09-11T20:05:46.327Z,24.70
2022-09-11T20:11:14.759Z,24.66
2022-09-11T20:13:54.556Z,24.65
2022-09-11T20:16:48.772Z,24.58
2022-09-11T20:19:20.884Z,24.45
2022-09-11T20:21:52.671Z,24.34
2022-09-11T20:24:26.185Z,24.31
2022-09-11T20:27:00.445Z,24.30
2022-09-11T20:29:31.039Z,24.16
2022-09-11T20:32:01.106Z,23.88
2022-09-11T20:34:31.676Z,23.90
2022-09-11T20:37:08.165Z,23.97
2022-09-11T20:39:41.346Z,24.10
2022-09-11T20:42:09.671Z,24.03
2022-09-11T20:44:37.419Z,24.18
2022-09-11T20:47:09.580Z,23.81
2022-09-11T20:49:40.075Z,23.70
2022-09-11T20:52:11.637Z,23.74
2022-09-11T20:54:39.562Z,23.78
2022-09-11T20:57:10.205Z,23.88
2022-09-11T20:59:43.346Z,23.95
2022-09-11T21:02:11.613Z,23.81
2022-09-11T21:04:43.950Z,23.91
2022-09-11T21:07:11.621Z,23.92
2022-09-11T21:09:40.801Z,24.05
2022-09-11T21:12:11.383Z,24.19
2022-09-11T21:14:41.433Z,24.15
2022-09-11T21:17:10.902Z,24.12
2022-09-11T21:19:38.624Z,24.07
2022-09-11T21:22:09.834Z,23.93
2022-09-11T21:24:45.597Z,23.84
2022-09-11T21:27:16.223Z,23.88
2022-09-11T21:29:46.819Z,23.85
2022-09-11T21:32:14.639Z,23.71
2022-09-11T21:34:47.483Z,23.96
2022-09-11T21:40:07.126Z,24.08
2022-09-11T21:42:39.592Z,23.99
2022-09-11T21:45:10.477Z,23.80
2022-09-11T21:47:42.244Z,23.74
2022-09-11T21:50:18.503Z,23.89
2022-09-11T21:52:50.102Z,23.97
2022-09-11T21:55:24.183Z,23.94
2022-09-11T21:57:57.416Z,24.03
2022-09-11T22:00:28.693Z,23.87
2022-09-11T22:02:58.577Z,23.80
2022-09-11T22:05:32.176Z,23.60
2022-09-11T22:08:11.163Z,23.41
2022-09-11T22:10:48.409Z,23.61
2022-09-11T22:13:18.755Z,23.79
2022-09-11T22:15:50.137Z,23.76
2022-09-11T22:18:20.237Z,23.72
2022-09-11T22:20:58.615Z,23.67
2022-09-11T22:23:52.186Z,23.77
2022-09-11T22:26:24.064Z,23.88
2022-09-11T22:28:57.198Z,23.75
2022-09-11T22:31:31.353Z,23.61
2022-09-11T22:34:07.075Z,23.54
2022-09-11T22:36:41.394Z,23.62
2022-09-11T22:39:16.488Z,23.75
2022-09-11T22:41:45.393Z,23.77
2022-09-11T22:44:20.945Z,23.81
2022-09-11T22:46:53.933Z,23.62
2022-09-11T22:49:36.127Z,23.60
2022-09-11T22:52:08.769Z,23.60
2022-09-11T22:54:39.370Z,23.67
2022-09-11T22:57:07.891Z,23.72
2022-09-11T22:59:42.838Z,23.69
2022-09-11T23:02:38.484Z,23.63
2022-09-11T23:05:27.174Z,23.52
2022-09-11T23:07:54.807Z,23.47
2022-09-11T23:10:24.026Z,23.41
2022-09-11T23:13:19.736Z,23.34
2022-09-11T23:15:53.663Z,23.38
2022-09-11T23:18:35.714Z,23.49
2022-09-11T23:21:06.917Z,23.58
2022-09-11T23:23:42.643Z,23.53
2022-09-11T23:26:21.346Z,23.59
2022-09-11T23:28:54.968Z,23.52
2022-09-11T23:31:32.798Z,23.52
2022-09-11T23:34:33.036Z,23.59
2022-09-11T23:37:06.410Z,23.48
2022-09-11T23:42:27.531Z,23.36
2022-09-11T23:45:06.179Z,23.38
2022-09-11T23:47:41.308Z,23.13
2022-09-11T23:50:13.808Z,23.27
2022-09-11T23:52:43.247Z,23.29
2022-09-11T23:55:21.503Z,22.96
2022-09-11T23:57:53.672Z,22.76
